createdAt,value
2023-02-15T00:01:59.163Z,100784.75
2023-02-15T00:04:45.511Z,100782.50
2023-02-15T00:07:12.448Z,100776.56
2023-02-15T00:09:39.031Z,100771.66
2023-02-15T00:12:05.659Z,100764.69
2023-02-15T00:14:32.819Z,100767.34
2023-02-15T00:17:00.910Z,100761.59
2023-02-15T00:19:27.673Z,100760.97
2023-02-15T00:21:54.237Z,100771.22
2023-02-15T00:24:20.812Z,100757.28
2023-02-15T00:26:48.320Z,100752.38
2023-02-15T00:29:16.553Z,100754.03
2023-02-15T00:31:43.138Z,100749.28
2023-02-15T00:34:16.400Z,100755.28
2023-02-15T00:36:44.200Z,100753.03
2023-02-15T00:39:10.831Z,100756.06
2023-02-15T00:41:37.447Z,100751.16
2023-02-15T00:44:04.511Z,100747.88
2023-02-15T00:46:31.796Z,100751.19
2023-02-15T00:48:58.566Z,100747.69
2023-02-15T00:51:25.499Z,100743.78
2023-02-15T00:53:52.332Z,100729.03
2023-02-15T00:56:19.257Z,100742.16
2023-02-15T00:58:45.839Z,100740.72
2023-02-15T01:01:18.634Z,100745.22
2023-02-15T01:03:47.489Z,100745.63
2023-02-15T01:06:15.717Z,100751.56
2023-02-15T01:08:42.613Z,100738.47
2023-02-15T01:11:12.553Z,100742.97
2023-02-15T01:13:39.805Z,100740.53
2023-02-15T01:16:07.347Z,100738.88
2023-02-15T01:18:34.792Z,100742.56
2023-02-15T01:21:01.764Z,100735.56
2023-02-15T01:23:28.329Z,100737.44
2023-02-15T01:25:54.989Z,100740.09
2023-02-15T01:28:21.543Z,100737.63
2023-02-15T01:30:48.180Z,100733.53
2023-02-15T01:33:19.003Z,100727.38
2023-02-15T01:35:47.160Z,100720.41
2023-02-15T01:38:15.182Z,100724.09
2023-02-15T01:40:42.240Z,100719.81
2023-02-15T01:43:12.804Z,100717.56
2023-02-15T01:45:40.290Z,100714.28
2023-02-15T01:48:22.489Z,100722.69
2023-02-15T01:50:54.981Z,100724.72
2023-02-15T01:53:37.994Z,100729.81
2023-02-15T01:56:07.340Z,100730.84
2023-02-15T01:58:35.023Z,100732.88
2023-02-15T02:01:04.737Z,100726.31
2023-02-15T02:04:23.883Z,100720.81
2023-02-15T02:06:52.320Z,100724.50
2023-02-15T02:09:18.878Z,100722.84
2023-02-15T02:11:48.701Z,100714.25
2023-02-15T02:14:16.394Z,100715.47
2023-02-15T02:17:14.435Z,100707.69
2023-02-15T02:19:59.545Z,100701.94
2023-02-15T02:22:55.286Z,100703.97
2023-02-15T02:25:59.454Z,100698.22
2023-02-15T02:28:55.013Z,100695.97
2023-02-15T02:31:43.550Z,100693.91
2023-02-15T02:34:33.377Z,100696.78
2023-02-15T02:37:24.519Z,100687.56
2023-02-15T02:40:01.464Z,100688.97
2023-02-15T02:42:37.370Z,100684.66
2023-02-15T02:45:18.516Z,100681.81
2023-02-15T02:47:50.873Z,100689.16
2023-02-15T02:50:24.165Z,100686.50
2023-02-15T02:52:53.012Z,100684.25
2023-02-15T02:55:26.648Z,100691.63
2023-02-15T02:57:59.089Z,100682.78
2023-02-15T03:00:27.465Z,100691.00
2023-02-15T03:03:26.384Z,100680.09
2023-02-15T03:05:58.343Z,100683.41
2023-02-15T03:08:30.024Z,100679.31
2023-02-15T03:10:59.235Z,100673.56
2023-02-15T03:13:26.272Z,100677.22
2023-02-15T03:16:12.145Z,100672.53
2023-02-15T03:18:58.075Z,100670.69
2023-02-15T03:21:50.394Z,100670.06
2023-02-15T03:24:22.603Z,100667.41
2023-02-15T03:26:52.682Z,100667.41
2023-02-15T03:29:22.194Z,100667.41
2023-02-15T03:31:57.765Z,100660.84
2023-02-15T03:34:24.479Z,100674.31
2023-02-15T03:37:01.296Z,100671.88
2023-02-15T03:39:39.457Z,100666.13
2023-02-15T03:42:38.176Z,100663.66
2023-02-15T03:45:09.429Z,100667.34
2023-02-15T03:47:41.249Z,100665.69
2023-02-15T03:50:46.359Z,100671.00
2023-02-15T03:53:17.902Z,100674.69
2023-02-15T03:55:48.800Z,100660.81
2023-02-15T03:58:33.975Z,100663.69
2023-02-15T04:01:24.460Z,100659.81
2023-02-15T04:03:54.891Z,100657.78
2023-02-15T04:06:21.431Z,100661.69
2023-02-15T04:09:06.596Z,100670.50
2023-02-15T04:11:33.207Z,100666.81
2023-02-15T04:13:59.792Z,100664.16
2023-02-15T04:16:26.921Z,100676.44
2023-02-15T04:19:12.014Z,100664.97
2023-02-15T04:21:57.383Z,100675.19
2023-02-15T04:24:42.310Z,100677.59
2023-02-15T04:27:09.014Z,100679.25
2023-02-15T04:29:35.553Z,100679.63
2023-02-15T04:32:03.122Z,100676.34
2023-02-15T04:34:29.748Z,100679.22
2023-02-15T04:36:56.435Z,100691.03
2023-02-15T04:39:22.971Z,100694.09
2023-02-15T04:41:49.522Z,100689.81
2023-02-15T04:44:16.184Z,100690.44
2023-02-15T04:46:42.705Z,100688.97
2023-02-15T04:49:10.406Z,100692.66
2023-02-15T04:51:37.235Z,100699.38
2023-02-15T04:54:03.849Z,100699.38
2023-02-15T04:56:31.200Z,100690.59
2023-02-15T04:58:58.073Z,100685.69
2023-02-15T05:01:24.630Z,100690.75
2023-02-15T05:03:51.210Z,100679.28
2023-02-15T05:06:17.999Z,100688.03
2023-02-15T05:08:44.556Z,100688.84
2023-02-15T05:11:11.534Z,100678.66
2023-02-15T05:13:38.109Z,100681.53
2023-02-15T05:16:04.996Z,100677.47
2023-02-15T05:18:31.619Z,100675.22
2023-02-15T05:20:58.281Z,100672.19
2023-02-15T05:23:24.869Z,100681.00
2023-02-15T05:26:10.737Z,100677.50
2023-02-15T05:28:38.667Z,100678.72
2023-02-15T05:31:17.438Z,100673.78
2023-02-15T05:33:45.167Z,100672.97
2023-02-15T05:36:12.481Z,100686.44
2023-02-15T05:38:39.684Z,100682.53
2023-02-15T05:41:07.439Z,100669.66
2023-02-15T05:43:34.318Z,100679.44
2023-02-15T05:46:01.829Z,100686.00
2023-02-15T05:48:29.136Z,100677.41
2023-02-15T05:51:10.735Z,100678.16
2023-02-15T05:53:39.126Z,100680.81
2023-02-15T05:56:07.852Z,100684.31
2023-02-15T05:58:36.935Z,100687.94
2023-02-15T06:01:18.282Z,100675.47
2023-02-15T06:03:46.489Z,100668.63
2023-02-15T06:06:13.465Z,100674.59
2023-02-15T06:08:40.323Z,100672.06
2023-02-15T06:11:07.515Z,100671.22
2023-02-15T06:13:38.018Z,100685.97
2023-02-15T06:16:06.372Z,100686.41
2023-02-15T06:18:33.194Z,100692.09
2023-02-15T06:20:59.942Z,100698.22
2023-02-15T06:23:26.500Z,100698.75
2023-02-15T06:25:53.233Z,100689.13
2023-02-15T06:28:19.829Z,100698.06
2023-02-15T06:30:46.922Z,100689.47
2023-02-15T06:33:13.504Z,100686.56
2023-02-15T06:35:40.139Z,100688.63
2023-02-15T06:38:06.713Z,100685.34
2023-02-15T06:40:33.236Z,100685.94
2023-02-15T06:42:59.816Z,100683.28
2023-02-15T06:45:26.461Z,100683.28
2023-02-15T06:47:53.010Z,100682.50
2023-02-15T06:50:19.919Z,100684.94
2023-02-15T06:52:46.553Z,100687.81
2023-02-15T06:55:13.096Z,100682.50
2023-02-15T06:57:39.698Z,100683.28
2023-02-15T07:00:07.117Z,100683.91
2023-02-15T07:02:33.696Z,100687.41
2023-02-15T07:05:00.463Z,100678.41
2023-02-15T07:07:27.156Z,100678.00
2023-02-15T07:09:53.701Z,100682.75
2023-02-15T07:12:38.560Z,100681.31
2023-02-15T07:15:07.334Z,100672.34
2023-02-15T07:17:36.455Z,100676.06
2023-02-15T07:20:12.379Z,100679.34
2023-02-15T07:22:39.431Z,100677.91
2023-02-15T07:25:08.292Z,100678.97
2023-02-15T07:27:35.228Z,100681.00
2023-02-15T07:30:02.344Z,100683.47
2023-02-15T07:32:33.737Z,100674.28
2023-02-15T07:35:00.774Z,100678.34
2023-02-15T07:37:28.371Z,100675.09
2023-02-15T07:39:54.909Z,100678.38
2023-02-15T07:42:23.009Z,100676.72
2023-02-15T07:44:49.855Z,100672.44
2023-02-15T07:47:16.561Z,100672.03
2023-02-15T07:49:43.233Z,100675.72
2023-02-15T07:52:09.821Z,100671.19
2023-02-15T07:54:36.390Z,100669.19
2023-02-15T07:57:03.217Z,100667.94
2023-02-15T07:59:29.944Z,100678.59
2023-02-15T08:01:57.489Z,100676.94
2023-02-15T08:04:24.599Z,100684.53
2023-02-15T08:06:55.109Z,100684.34
2023-02-15T08:09:22.525Z,100677.75
2023-02-15T08:11:49.254Z,100686.59
2023-02-15T08:14:21.472Z,100679.81
2023-02-15T08:16:50.696Z,100667.53
2023-02-15T08:19:28.761Z,100668.78
2023-02-15T08:22:01.046Z,100658.94
2023-02-15T08:24:30.109Z,100660.56
2023-02-15T08:26:57.084Z,100670.19
2023-02-15T08:29:27.528Z,100664.06
2023-02-15T08:32:03.577Z,100668.13
2023-02-15T08:34:34.866Z,100658.50
2023-02-15T08:37:01.999Z,100658.50
2023-02-15T08:39:29.576Z,100659.38
2023-02-15T08:41:56.680Z,100668.56
2023-02-15T08:44:23.493Z,100658.13
2023-02-15T08:46:50.853Z,100656.91
2023-02-15T08:49:22.283Z,100670.41
2023-02-15T08:51:50.078Z,100666.72
2023-02-15T08:54:19.391Z,100666.13
2023-02-15T08:56:46.813Z,100661.84
2023-02-15T08:59:19.786Z,100655.25
2023-02-15T09:01:49.362Z,100664.88
2023-02-15T09:04:17.121Z,100658.16
2023-02-15T09:06:47.622Z,100662.22
2023-02-15T09:09:15.466Z,100658.34
2023-02-15T09:11:44.057Z,100673.28
2023-02-15T09:14:17.085Z,100666.75
2023-02-15T09:16:47.458Z,100660.59
2023-02-15T09:19:14.270Z,100658.13
2023-02-15T09:21:40.833Z,100647.91
2023-02-15T09:24:10.167Z,100655.28
2023-02-15T09:26:41.380Z,100656.69
2023-02-15T09:29:09.192Z,100660.38
2023-02-15T09:31:45.388Z,100654.03
2023-02-15T09:34:14.828Z,100652.16
2023-02-15T09:36:42.178Z,100660.38
2023-02-15T09:39:15.929Z,100661.00
2023-02-15T09:42:21.447Z,100664.69
2023-02-15T09:45:12.349Z,100661.00
2023-02-15T09:47:56.952Z,100668.56
2023-02-15T09:50:34.165Z,100659.72
2023-02-15T09:53:20.656Z,100667.91
2023-02-15T09:56:06.186Z,100669.59
2023-02-15T09:58:54.665Z,100674.09
2023-02-15T10:01:24.465Z,100679.78
2023-02-15T10:04:24.265Z,100670.38
2023-02-15T10:07:30.958Z,100666.69
2023-02-15T10:10:24.465Z,100667.66
2023-02-15T10:13:18.715Z,100671.16
2023-02-15T10:16:09.500Z,100668.88
2023-02-15T10:18:54.977Z,100661.88
2023-02-15T10:21:55.579Z,100660.66
2023-02-15T10:24:49.039Z,100654.22
2023-02-15T10:27:22.824Z,100653.59
2023-02-15T10:30:07.043Z,100652.72
2023-02-15T10:33:01.148Z,100654.13
2023-02-15T10:35:41.172Z,100651.22
2023-02-15T10:38:28.635Z,100647.94
2023-02-15T10:41:04.371Z,100645.47
2023-02-15T10:44:20.272Z,100638.47
2023-02-15T10:47:25.885Z,100639.09
2023-02-15T10:50:24.316Z,100636.22
2023-02-15T10:53:31.712Z,100631.50
2023-02-15T10:56:04.066Z,100636.84
2023-02-15T10:58:50.555Z,100640.75
2023-02-15T11:01:25.096Z,100637.63
2023-02-15T11:04:28.638Z,100624.06
2023-02-15T11:07:00.807Z,100622.50
2023-02-15T11:09:39.724Z,100622.56
2023-02-15T11:12:13.430Z,100617.13
2023-02-15T11:14:56.489Z,100614.75
2023-02-15T11:17:27.601Z,100611.44
2023-02-15T11:20:17.895Z,100614.75
2023-02-15T11:22:49.189Z,100608.16
2023-02-15T11:25:24.510Z,100600.91
2023-02-15T11:27:51.530Z,100608.69
2023-02-15T11:30:24.503Z,100602.59
2023-02-15T11:32:59.801Z,100599.63
2023-02-15T11:35:38.231Z,100599.09
2023-02-15T11:38:27.302Z,100599.94
2023-02-15T11:41:01.481Z,100594.19
2023-02-15T11:43:57.466Z,100592.38
2023-02-15T11:46:24.276Z,100590.28
2023-02-15T11:48:50.924Z,100594.59
2023-02-15T11:51:23.761Z,100584.22
2023-02-15T11:53:51.488Z,100592.81
2023-02-15T11:56:23.456Z,100577.00
2023-02-15T11:58:53.808Z,100579.28
2023-02-15T12:01:45.641Z,100578.03
2023-02-15T12:04:31.065Z,100563.97
2023-02-15T12:07:12.703Z,100561.63
2023-02-15T12:09:51.728Z,100561.38
2023-02-15T12:12:31.749Z,100558.72
2023-02-15T12:15:07.479Z,100556.59
2023-02-15T12:17:39.137Z,100553.59
2023-02-15T12:20:36.264Z,100554.78
2023-02-15T12:23:08.222Z,100541.25
2023-02-15T12:25:34.722Z,100530.25
2023-02-15T12:28:01.586Z,100531.06
2023-02-15T12:30:35.470Z,100524.38
2023-02-15T12:33:17.098Z,100527.25
2023-02-15T12:35:44.924Z,100520.63
2023-02-15T12:38:11.448Z,100518.97
2023-02-15T12:40:39.471Z,100525.47
2023-02-15T12:43:09.854Z,100525.56
2023-02-15T12:45:38.921Z,100522.88
2023-02-15T12:48:11.472Z,100520.84
2023-02-15T12:50:38.508Z,100520.03
2023-02-15T12:53:13.842Z,100517.09
2023-02-15T12:55:52.830Z,100514.03
2023-02-15T12:58:23.237Z,100504.59
2023-02-15T13:01:05.432Z,100499.72
2023-02-15T13:03:32.666Z,100500.00
2023-02-15T13:05:59.651Z,100491.56
2023-02-15T13:08:32.831Z,100487.53
2023-02-15T13:11:11.043Z,100489.81
2023-02-15T13:13:59.118Z,100487.84
2023-02-15T13:16:36.116Z,100485.34
2023-02-15T13:19:13.655Z,100478.56
2023-02-15T13:21:42.466Z,100470.13
2023-02-15T13:24:28.720Z,100470.50
2023-02-15T13:27:13.214Z,100474.44
2023-02-15T13:29:44.968Z,100457.00
2023-02-15T13:32:30.037Z,100464.72
2023-02-15T13:34:59.949Z,100464.78
2023-02-15T13:37:51.239Z,100456.19
2023-02-15T13:40:56.311Z,100460.56
2023-02-15T13:43:49.067Z,100447.25
2023-02-15T13:46:36.945Z,100445.00
2023-02-15T13:49:48.292Z,100448.63
2023-02-15T13:52:20.486Z,100441.38
2023-02-15T13:55:11.949Z,100440.38
2023-02-15T13:58:03.882Z,100441.69
2023-02-15T14:00:44.631Z,100432.69
2023-02-15T14:03:18.086Z,100424.44
2023-02-15T14:05:54.485Z,100429.19
2023-02-15T14:08:59.392Z,100417.47
2023-02-15T14:11:29.051Z,100418.22
2023-02-15T14:13:58.199Z,100414.09
2023-02-15T14:16:40.340Z,100407.72
2023-02-15T14:19:12.552Z,100412.25
2023-02-15T14:21:48.323Z,100414.88
2023-02-15T14:24:33.776Z,100408.34
2023-02-15T14:27:35.910Z,100408.81
2023-02-15T14:30:14.113Z,100401.88
2023-02-15T14:32:46.163Z,100413.38
2023-02-15T14:35:17.559Z,100402.78
2023-02-15T14:37:51.217Z,100409.13
2023-02-15T14:41:02.200Z,100401.88
2023-02-15T14:43:36.133Z,100396.09
2023-02-15T14:46:16.688Z,100396.22
2023-02-15T14:48:53.511Z,100394.81
2023-02-15T14:51:44.038Z,100392.59
2023-02-15T14:54:33.689Z,100396.47
2023-02-15T14:57:03.065Z,100389.75
2023-02-15T14:59:53.398Z,100404.44
2023-02-15T15:02:25.276Z,100399.09
2023-02-15T15:05:00.358Z,100397.44
2023-02-15T15:07:36.514Z,100393.09
2023-02-15T15:10:23.446Z,100387.06
2023-02-15T15:12:54.199Z,100387.63
2023-02-15T15:15:32.924Z,100380.94
2023-02-15T15:18:09.010Z,100395.94
2023-02-15T15:20:52.407Z,100384.69
2023-02-15T15:23:19.042Z,100385.66
2023-02-15T15:25:53.010Z,100389.63
2023-02-15T15:28:34.711Z,100400.38
2023-02-15T15:31:16.373Z,100395.38
2023-02-15T15:34:01.601Z,100392.56
2023-02-15T15:36:46.779Z,100400.78
2023-02-15T15:39:28.637Z,100395.16
2023-02-15T15:42:12.984Z,100388.44
2023-02-15T15:45:01.316Z,100396.28
2023-02-15T15:47:30.850Z,100401.19
2023-02-15T15:49:59.361Z,100405.47
2023-02-15T15:52:27.901Z,100410.84
2023-02-15T15:54:58.547Z,100402.75
2023-02-15T15:57:46.832Z,100393.22
2023-02-15T16:00:32.023Z,100398.31
2023-02-15T16:02:58.699Z,100395.06
2023-02-15T16:05:25.336Z,100390.69
2023-02-15T16:07:51.908Z,100391.47
2023-02-15T16:10:25.606Z,100391.44
2023-02-15T16:12:54.204Z,100389.50
2023-02-15T16:15:26.731Z,100396.44
2023-02-15T16:17:57.001Z,100389.56
2023-02-15T16:20:25.440Z,100387.59
2023-02-15T16:23:06.443Z,100391.81
2023-02-15T16:25:41.885Z,100387.44
2023-02-15T16:28:11.839Z,100393.25
2023-02-15T16:30:40.647Z,100389.41
2023-02-15T16:33:11.659Z,100384.44
2023-02-15T16:35:54.549Z,100382.75
2023-02-15T16:38:48.819Z,100383.16
2023-02-15T16:41:35.977Z,100389.19
2023-02-15T16:44:17.641Z,100388.03
2023-02-15T16:46:49.041Z,100388.22
2023-02-15T16:49:20.216Z,100389.16
2023-02-15T16:52:02.322Z,100383.13
2023-02-15T16:54:30.971Z,100387.84
2023-02-15T16:56:58.641Z,100389.13
2023-02-15T16:59:31.331Z,100394.63
2023-02-15T17:01:58.544Z,100404.22
2023-02-15T17:04:33.333Z,100403.25
2023-02-15T17:07:05.109Z,100409.63
2023-02-15T17:09:32.672Z,100403.63
2023-02-15T17:12:00.773Z,100408.38
2023-02-15T17:14:41.025Z,100407.41
2023-02-15T17:17:13.184Z,100406.72
2023-02-15T17:19:55.664Z,100407.38
2023-02-15T17:22:28.167Z,100406.25
2023-02-15T17:25:05.280Z,100407.25
2023-02-15T17:27:34.101Z,100410.66
2023-02-15T17:30:04.392Z,100415.38
2023-02-15T17:32:32.836Z,100412.03
2023-02-15T17:35:20.469Z,100414.53
2023-02-15T17:37:50.997Z,100410.47
2023-02-15T17:40:31.084Z,100410.94
2023-02-15T17:42:57.751Z,100403.66
2023-02-15T17:45:32.546Z,100420.69
2023-02-15T17:47:59.936Z,100408.25
2023-02-15T17:50:28.004Z,100421.81
2023-02-15T17:52:56.901Z,100425.69
2023-02-15T17:55:36.573Z,100416.75
2023-02-15T17:58:05.767Z,100428.19
2023-02-15T18:00:52.964Z,100433.69
2023-02-15T18:03:38.121Z,100415.78
2023-02-15T18:06:23.911Z,100408.66
2023-02-15T18:09:10.905Z,100402.63
2023-02-15T18:11:38.920Z,100410.31
2023-02-15T18:14:10.775Z,100413.47
2023-02-15T18:16:41.783Z,100404.28
2023-02-15T18:19:14.906Z,100416.53
2023-02-15T18:21:41.663Z,100417.03
2023-02-15T18:24:15.780Z,100412.63
2023-02-15T18:26:42.471Z,100407.69
2023-02-15T18:29:09.197Z,100411.91
2023-02-15T18:31:36.034Z,100410.28
2023-02-15T18:34:03.216Z,100416.38
2023-02-15T18:36:33.466Z,100416.47
2023-02-15T18:39:05.767Z,100418.00
2023-02-15T18:41:34.353Z,100414.97
2023-02-15T18:44:00.880Z,100421.59
2023-02-15T18:46:27.454Z,100423.13
2023-02-15T18:48:54.132Z,100417.88
2023-02-15T18:51:23.101Z,100423.78
2023-02-15T18:53:53.431Z,100426.59
2023-02-15T18:56:22.725Z,100427.88
2023-02-15T18:58:49.890Z,100433.44
2023-02-15T19:01:19.682Z,100430.44
2023-02-15T19:03:51.361Z,100424.97
2023-02-15T19:06:20.434Z,100421.91
2023-02-15T19:08:49.318Z,100429.59
2023-02-15T19:11:18.860Z,100419.81
2023-02-15T19:13:48.808Z,100423.16
2023-02-15T19:16:36.251Z,100421.63
2023-02-15T19:19:02.857Z,100420.38
2023-02-15T19:21:31.621Z,100415.84
2023-02-15T19:24:05.312Z,100422.47
2023-02-15T19:26:44.413Z,100432.34
2023-02-15T19:29:14.324Z,100434.09
2023-02-15T19:31:41.250Z,100438.63
2023-02-15T19:34:16.291Z,100430.59
2023-02-15T19:36:45.131Z,100428.03
2023-02-15T19:39:28.181Z,100433.84
2023-02-15T19:41:55.385Z,100435.81
2023-02-15T19:44:22.674Z,100440.00
2023-02-15T19:46:49.303Z,100437.06
2023-02-15T19:49:16.039Z,100438.50
2023-02-15T19:51:42.855Z,100435.81
2023-02-15T19:54:24.411Z,100449.88
2023-02-15T19:56:50.939Z,100447.53
2023-02-15T19:59:29.807Z,100450.28
2023-02-15T20:01:57.282Z,100449.72
2023-02-15T20:04:24.705Z,100434.13
2023-02-15T20:06:52.662Z,100443.19
2023-02-15T20:09:23.932Z,100434.56
2023-02-15T20:11:51.982Z,100434.91
2023-02-15T20:14:19.236Z,100436.91
2023-02-15T20:16:45.971Z,100432.75
2023-02-15T20:19:13.408Z,100437.88
2023-02-15T20:21:42.551Z,100440.09
2023-02-15T20:24:15.860Z,100439.13
2023-02-15T20:26:42.689Z,100430.78
2023-02-15T20:29:14.384Z,100432.63
2023-02-15T20:31:41.584Z,100426.22
2023-02-15T20:34:08.465Z,100421.09
2023-02-15T20:36:35.676Z,100425.50
2023-02-15T20:39:10.988Z,100433.41
2023-02-15T20:41:49.017Z,100426.84
2023-02-15T20:44:15.532Z,100424.88
2023-02-15T20:46:42.140Z,100433.13
2023-02-15T20:49:08.725Z,100436.25
2023-02-15T20:51:35.452Z,100431.94
2023-02-15T20:54:02.102Z,100435.06
2023-02-15T20:56:28.646Z,100428.75
2023-02-15T20:58:55.499Z,100430.00
2023-02-15T21:01:22.071Z,100438.84
2023-02-15T21:03:48.902Z,100440.69
2023-02-15T21:06:16.907Z,100446.03
2023-02-15T21:08:43.712Z,100443.84
2023-02-15T21:11:22.353Z,100450.53
2023-02-15T21:13:50.613Z,100454.47
2023-02-15T21:16:17.215Z,100452.69
2023-02-15T21:18:43.827Z,100453.34
2023-02-15T21:21:15.612Z,100447.06
2023-02-15T21:23:43.701Z,100442.97
2023-02-15T21:26:20.268Z,100442.84
2023-02-15T21:28:47.558Z,100436.66
2023-02-15T21:31:19.956Z,100445.31
2023-02-15T21:33:46.590Z,100444.16
2023-02-15T21:36:16.883Z,100450.38
2023-02-15T21:38:45.095Z,100455.13
2023-02-15T21:41:35.526Z,100447.78
2023-02-15T21:44:20.547Z,100446.38
2023-02-15T21:47:05.479Z,100443.53
2023-02-15T21:49:32.038Z,100439.09
2023-02-15T21:52:14.257Z,100448.34
2023-02-15T21:54:41.405Z,100461.31
2023-02-15T21:57:14.152Z,100466.72
2023-02-15T21:59:42.503Z,100454.25
2023-02-15T22:02:32.339Z,100462.75
2023-02-15T22:04:59.308Z,100459.25
2023-02-15T22:07:25.848Z,100455.19
2023-02-15T22:09:54.274Z,100457.25
2023-02-15T22:12:21.947Z,100450.88
2023-02-15T22:14:53.046Z,100460.34
2023-02-15T22:17:24.952Z,100453.81
2023-02-15T22:19:51.812Z,100448.16
2023-02-15T22:22:18.619Z,100452.03
2023-02-15T22:24:45.867Z,100455.53
2023-02-15T22:27:27.926Z,100456.31
2023-02-15T22:29:55.081Z,100453.50
2023-02-15T22:32:24.741Z,100446.69
2023-02-15T22:34:52.727Z,100453.25
2023-02-15T22:37:19.776Z,100453.50
2023-02-15T22:39:46.441Z,100450.22
2023-02-15T22:42:25.223Z,100465.63
2023-02-15T22:44:54.556Z,100458.06
2023-02-15T22:47:27.355Z,100465.88
2023-02-15T22:49:57.058Z,100468.97
2023-02-15T22:52:24.550Z,100466.75
2023-02-15T22:54:51.161Z,100473.94
2023-02-15T22:57:31.769Z,100470.66
2023-02-15T23:00:00.655Z,100472.53
2023-02-15T23:02:27.299Z,100468.66
2023-02-15T23:04:53.997Z,100468.06
2023-02-15T23:07:21.562Z,100470.13
2023-02-15T23:09:48.129Z,100474.81
2023-02-15T23:12:49.249Z,100474.66
2023-02-15T23:15:15.839Z,100478.34
2023-02-15T23:17:42.394Z,100484.94
2023-02-15T23:20:16.464Z,100490.47
2023-02-15T23:22:44.352Z,100486.19
2023-02-15T23:25:12.254Z,100489.06
2023-02-15T23:27:57.473Z,100488.00
2023-02-15T23:30:24.746Z,100491.50
2023-02-15T23:32:54.526Z,100491.50
2023-02-15T23:35:21.197Z,100492.75
2023-02-15T23:37:47.868Z,100496.06
2023-02-15T23:40:38.259Z,100490.53
2023-02-15T23:43:06.287Z,100494.25
2023-02-15T23:45:38.368Z,100499.56
2023-02-15T23:48:38.886Z,100494.06
2023-02-15T23:51:06.726Z,100490.78
2023-02-15T23:53:33.552Z,100491.22
2023-02-15T23:56:00.490Z,100489.59
2023-02-15T23:58:36.323Z,100488.16
